Terminal Aerodrome Forecast
Issued by NWS Mt. Holly, NJ

Home | Current Version | Previous Version | Text Only | Print | Product List | Glossary On
Versions: 1 2 3 4 5 6 7 8 9 10 11 12 13 14 15 16 17 18 19 20 21 22 23
000
FTUS41 KPHI 271100
TAFPHL
TAF
KPHL 271120Z 2712/2818 24003KT P6SM BKN250
     FM271500 23006KT P6SM SCT250
     FM280600 20004KT P6SM BKN150
     FM281000 27004KT P6SM BKN100=

USA.gov is the U.S. government's official web portal to all federal, state and local government web resources and services.